Time;durP1;ratioP1;P1;durP2;ratioP2;P2;SDS_P1;SDS_P2;PMS_P1;PMS_P2;Temp;Humidity;BMP_temperature;BMP_pressure;BME280_temperature;BME280_humidity;BME280_pressure;Samples;Min_cycle;Max_cycle;Signal;HPM_P1;HPM_P2
2024/02/13 00:00:25;;;;;;;;;;;;;;;;;;;;;
2024/02/13 00:03:21;;;;;;;7.53;2.33;;;;;;;;;;4938148;28;20057;-89
2024/02/13 00:06:09;;;;;;;5.63;1.90;;;;;;;;;;4979622;28;20027;-87
2024/02/13 00:08:57;;;;;;;8.17;2.40;;;;;;;;;;4961334;28;20097;-86
2024/02/13 00:11:46;;;;;;;4.68;2.05;;;;;;;;;;4969591;28;20138;-87
2024/02/13 00:14:31;;;;;;;10.85;2.30;;;;;;;;;;4958656;28;20026;-86
2024/02/13 00:17:17;;;;;;;5.60;2.13;;;;;;;;;;4960193;28;20051;-87
2024/02/13 00:20:08;;;;;;;5.20;2.17;;;;;;;;;;4954450;28;20031;-87
2024/02/13 00:22:58;;;;;;;9.55;3.15;;;;;;;;;;4957165;28;20046;-87
2024/02/13 00:25:44;;;;;;;6.43;2.47;;;;;;;;;;4966405;28;20105;-88
2024/02/13 00:28:30;;;;;;;7.18;2.03;;;;;;;;;;4968041;28;20037;-90
2024/02/13 00:38:24;;;;;;;4.95;1.67;;;;;;;;;;4953963;28;20038;-89
2024/02/13 00:41:09;;;;;;;9.95;2.22;;;;;;;;;;4958687;28;20029;-88
2024/02/13 00:43:55;;;;;;;5.00;1.70;;;;;;;;;;4960076;28;20033;-89
2024/02/13 00:46:56;;;;;;;;;;;;;;;;;;;;;
2024/02/13 00:49:44;;;;;;;8.75;2.03;;;;;;;;;;4951683;28;20023;-89
2024/02/13 00:52:42;;;;;;;;;;;;;;;;;;;;;
2024/02/13 00:55:31;;;;;;;5.50;1.77;;;;;;;;;;4961687;28;20102;-88
2024/02/13 00:58:19;;;;;;;8.83;2.53;;;;;;;;;;4960572;28;20041;-86
2024/02/13 01:01:14;;;;;;;6.57;2.20;;;;;;;;;;4960265;28;20118;-87
2024/02/13 01:03:59;;;;;;;3.90;1.40;;;;;;;;;;4960775;28;20092;-86
2024/02/13 01:06:45;;;;;;;4.95;1.80;;;;;;;;;;4964153;28;20023;-88
2024/02/13 01:09:30;;;;;;;4.63;1.88;;;;;;;;;;4953185;28;20027;-86
2024/02/13 01:12:15;;;;;;;5.18;2.00;;;;;;;;;;4957860;28;20125;-87
2024/02/13 01:15:01;;;;;;;6.97;2.00;;;;;;;;;;4955199;28;20093;-87
2024/02/13 01:17:46;;;;;;;4.30;1.80;;;;;;;;;;4966762;28;20129;-88
2024/02/13 01:20:31;;;;;;;7.03;2.53;;;;;;;;;;4957408;28;20038;-87
2024/02/13 01:23:17;;;;;;;6.28;2.05;;;;;;;;;;4957199;28;20026;-90
2024/02/13 01:26:03;;;;;;;12.73;2.72;;;;;;;;;;4957667;28;20035;-86
2024/02/13 01:28:48;;;;;;;5.00;2.17;;;;;;;;;;4972986;28;20030;-88
2024/02/13 01:31:33;;;;;;;4.88;1.90;;;;;;;;;;4964608;28;20165;-88
2024/02/13 01:34:19;;;;;;;2.92;1.60;;;;;;;;;;4964718;28;20022;-89
2024/02/13 01:37:07;;;;;;;9.35;1.85;;;;;;;;;;4966505;28;20030;-88
2024/02/13 01:39:54;;;;;;;;;;;;;;;;;;4963387;28;20307;-90
2024/02/13 01:42:40;;;;;;;7.07;2.33;;;;;;;;;;4956986;28;19906;-89
2024/02/13 01:45:28;;;;;;;6.03;1.98;;;;;;;;;;4958489;28;20031;-89
2024/02/13 01:48:17;;;;;;;6.82;2.67;;;;;;;;;;4968010;28;20031;-88
2024/02/13 01:51:03;;;;;;;8.00;2.05;;;;;;;;;;4944980;28;20054;-88
2024/02/13 01:53:51;;;;;;;8.45;1.92;;;;;;;;;;4964392;28;20047;-88
2024/02/13 01:56:50;;;;;;;7.88;1.98;;;;;;;;;;4970906;28;20038;-90
2024/02/13 01:59:38;;;;;;;7.03;2.27;;;;;;;;;;4961637;28;20023;-88
2024/02/13 02:02:24;;;;;;;6.20;1.77;;;;;;;;;;4968996;28;20081;-86
2024/02/13 02:05:11;;;;;;;6.72;2.42;;;;;;;;;;4955922;28;20038;-87
2024/02/13 02:07:56;;;;;;;7.07;2.95;;;;;;;;;;4950149;28;20069;-86
2024/02/13 02:10:44;;;;;;;5.35;1.88;;;;;;;;;;4951370;28;20026;-86
2024/02/13 02:13:32;;;;;;;4.57;2.22;;;;;;;;;;4964445;28;20030;-88
2024/02/13 02:16:18;;;;;;;6.15;1.80;;;;;;;;;;4959371;28;20019;-87
2024/02/13 02:19:03;;;;;;;6.55;2.10;;;;;;;;;;4961600;28;20031;-87
2024/02/13 02:21:49;;;;;;;4.90;1.92;;;;;;;;;;4960423;28;20122;-87
2024/02/13 02:24:36;;;;;;;4.57;1.88;;;;;;;;;;4954525;28;20098;-89
2024/02/13 02:27:29;;;;;;;5.18;2.58;;;;;;;;;;4957175;28;20047;-89
2024/02/13 02:30:24;;;;;;;3.45;1.60;;;;;;;;;;4957350;28;20571;-89
2024/02/13 02:33:17;;;;;;;4.75;1.92;;;;;;;;;;4959171;28;20161;-88
2024/02/13 02:36:03;;;;;;;4.78;2.60;;;;;;;;;;4954206;28;20037;-90
2024/02/13 02:38:51;;;;;;;5.70;1.75;;;;;;;;;;4961095;28;20045;-91
2024/02/13 02:41:38;;;;;;;6.90;2.17;;;;;;;;;;4958916;28;20027;-88
2024/02/13 02:44:27;;;;;;;4.60;2.47;;;;;;;;;;4955661;28;20153;-89
2024/02/13 02:47:12;;;;;;;8.85;2.50;;;;;;;;;;4967858;28;20071;-88
2024/02/13 02:49:58;;;;;;;4.18;1.67;;;;;;;;;;4964520;28;20023;-88
2024/02/13 02:52:43;;;;;;;5.93;2.15;;;;;;;;;;4944471;28;20027;-89
2024/02/13 02:55:29;;;;;;;7.20;2.35;;;;;;;;;;4968186;28;20084;-90
2024/02/13 02:58:15;;;;;;;7.60;2.00;;;;;;;;;;4963238;28;20085;-88
2024/02/13 03:01:00;;;;;;;8.95;2.22;;;;;;;;;;4954473;28;20030;-88
2024/02/13 03:03:46;;;;;;;5.55;2.53;;;;;;;;;;4957085;28;20041;-89
2024/02/13 03:06:31;;;;;;;4.95;2.03;;;;;;;;;;4957435;28;20030;-89
2024/02/13 03:09:17;;;;;;;9.00;2.13;;;;;;;;;;4958177;28;20039;-88
2024/02/13 03:12:03;;;;;;;6.22;1.92;;;;;;;;;;4963320;28;20062;-89
2024/02/13 03:14:50;;;;;;;10.13;1.88;;;;;;;;;;4967674;28;20034;-89
2024/02/13 03:17:39;;;;;;;3.42;1.58;;;;;;;;;;4955251;28;20051;-88
2024/02/13 03:20:25;;;;;;;3.38;1.77;;;;;;;;;;4964718;28;20116;-86
2024/02/13 03:23:10;;;;;;;4.65;1.98;;;;;;;;;;4944531;28;20366;-90
2024/02/13 03:25:55;;;;;;;11.20;2.78;;;;;;;;;;4956836;28;20217;-88
2024/02/13 03:28:41;;;;;;;5.55;2.13;;;;;;;;;;4963027;28;20034;-88
2024/02/13 03:31:26;;;;;;;5.22;2.40;;;;;;;;;;4970899;28;20082;-86
2024/02/13 03:34:14;;;;;;;5.90;1.90;;;;;;;;;;4959290;28;20037;-87
2024/02/13 03:36:59;;;;;;;4.65;2.08;;;;;;;;;;4955946;28;20023;-87
2024/02/13 03:39:44;;;;;;;5.20;2.10;;;;;;;;;;4966756;28;20038;-86
2024/02/13 03:42:38;;;;;;;4.25;1.92;;;;;;;;;;4945350;28;20093;-87
2024/02/13 03:45:23;;;;;;;4.20;2.33;;;;;;;;;;4960979;28;20024;-89
2024/02/13 03:48:09;;;;;;;5.00;2.05;;;;;;;;;;4957045;28;20042;-88
2024/02/13 03:50:54;;;;;;;5.50;2.33;;;;;;;;;;4959155;28;20108;-88
2024/02/13 03:53:39;;;;;;;7.40;2.20;;;;;;;;;;4955298;28;20030;-87
2024/02/13 03:56:24;;;;;;;3.47;2.00;;;;;;;;;;4957185;28;20019;-88
2024/02/13 03:59:10;;;;;;;6.40;2.15;;;;;;;;;;4957959;28;20015;-88
2024/02/13 04:01:58;;;;;;;8.05;2.75;;;;;;;;;;4956845;28;20031;-87
2024/02/13 04:04:46;;;;;;;11.48;2.28;;;;;;;;;;4943955;28;20031;-88
2024/02/13 04:07:33;;;;;;;7.43;2.22;;;;;;;;;;4956718;28;20069;-88
2024/02/13 04:10:29;;;;;;;8.57;2.35;;;;;;;;;;4957218;28;20050;-89
2024/02/13 04:13:16;;;;;;;4.05;1.88;;;;;;;;;;4958850;28;20038;-89
2024/02/13 04:16:15;;;;;;;;;;;;;;;;;;;;;
2024/02/13 04:19:06;;;;;;;4.60;1.83;;;;;;;;;;4926381;29;20131;-89
2024/02/13 04:22:04;;;;;;;;;;;;;;;;;;;;;
2024/02/13 04:24:51;;;;;;;3.65;2.03;;;;;;;;;;4948904;28;20105;-89
2024/02/13 04:27:41;;;;;;;3.70;1.83;;;;;;;;;;4970304;28;20497;-89
2024/02/13 04:30:27;;;;;;;4.35;2.85;;;;;;;;;;4979314;28;20047;-87
2024/02/13 04:33:12;;;;;;;4.05;1.63;;;;;;;;;;4961072;28;20118;-86
2024/02/13 04:35:57;;;;;;;10.60;4.88;;;;;;;;;;4955507;28;20037;-87
2024/02/13 04:38:43;;;;;;;7.43;2.65;;;;;;;;;;4963296;28;20455;-85
2024/02/13 04:41:29;;;;;;;12.70;3.20;;;;;;;;;;4961670;28;20039;-87
2024/02/13 04:44:15;;;;;;;8.80;2.78;;;;;;;;;;4956161;28;20023;-85
2024/02/13 04:47:02;;;;;;;9.18;2.40;;;;;;;;;;4970445;28;20062;-86
2024/02/13 04:49:48;;;;;;;4.88;2.67;;;;;;;;;;4957746;28;20031;-87
2024/02/13 04:52:34;;;;;;;5.93;1.80;;;;;;;;;;4945349;28;20015;-87
2024/02/13 04:55:19;;;;;;;6.88;2.10;;;;;;;;;;4955611;28;20026;-87
2024/02/13 04:58:08;;;;;;;7.72;2.20;;;;;;;;;;4975008;28;20588;-87
2024/02/13 05:01:05;;;;;;;5.35;1.80;;;;;;;;;;4958760;28;20031;-89
2024/02/13 05:09:46;;;;;;;7.22;2.40;;;;;;;;;;4996489;28;20021;-88
2024/02/13 05:12:31;;;;;;;6.22;1.88;;;;;;;;;;4996257;28;20090;-87
2024/02/13 05:15:21;;;;;;;2.55;1.35;;;;;;;;;;4987023;28;20015;-88
2024/02/13 05:18:06;;;;;;;4.95;1.85;;;;;;;;;;4954853;28;20061;-89
2024/02/13 05:20:52;;;;;;;5.88;1.80;;;;;;;;;;4968778;28;20397;-88
2024/02/13 05:23:40;;;;;;;8.10;2.67;;;;;;;;;;4966516;28;20034;-88
2024/02/13 05:26:25;;;;;;;4.97;1.77;;;;;;;;;;4963061;28;20027;-87
2024/02/13 05:29:10;;;;;;;6.45;1.90;;;;;;;;;;4964793;28;20030;-87
2024/02/13 05:31:56;;;;;;;4.32;1.33;;;;;;;;;;4985713;28;20023;-87
2024/02/13 05:34:43;;;;;;;6.47;1.98;;;;;;;;;;4962716;28;20672;-87
2024/02/13 05:37:29;;;;;;;4.60;1.83;;;;;;;;;;4976342;28;20030;-88
2024/02/13 05:40:17;;;;;;;4.05;1.63;;;;;;;;;;4968356;28;20031;-87
2024/02/13 05:43:10;;;;;;;6.45;2.47;;;;;;;;;;4961615;28;20030;-88
2024/02/13 05:45:58;;;;;;;5.68;1.88;;;;;;;;;;4972410;28;20406;-88
2024/02/13 05:49:05;;;;;;;;;;;;;;;;;;;;;
2024/02/13 05:51:51;;;;;;;5.38;1.75;;;;;;;;;;4970316;28;20065;-85
2024/02/13 05:54:39;;;;;;;3.88;2.00;;;;;;;;;;4975024;28;20030;-85
2024/02/13 05:57:25;;;;;;;5.10;1.75;;;;;;;;;;4966895;28;20061;-87
2024/02/13 06:00:14;;;;;;;4.65;2.08;;;;;;;;;;4966043;28;20492;-86
2024/02/13 06:03:00;;;;;;;4.43;1.75;;;;;;;;;;4971983;28;20076;-85
2024/02/13 06:05:46;;;;;;;5.85;2.83;;;;;;;;;;4967802;28;20505;-88
2024/02/13 06:08:34;;;;;;;8.90;2.88;;;;;;;;;;4961168;28;20023;-89
2024/02/13 06:11:19;;;;;;;19.30;4.10;;;;;;;;;;4956010;28;20474;-89
2024/02/13 06:14:05;;;;;;;7.03;2.78;;;;;;;;;;4950697;28;20118;-87
2024/02/13 06:16:50;;;;;;;12.00;2.80;;;;;;;;;;4956616;28;20053;-86
2024/02/13 06:19:54;;;;;;;8.70;2.90;;;;;;;;;;4959562;28;20122;-91
2024/02/13 06:22:40;;;;;;;11.45;3.08;;;;;;;;;;4969367;28;20192;-83
2024/02/13 06:25:25;;;;;;;14.10;3.28;;;;;;;;;;4973676;28;20026;-81
2024/02/13 06:28:17;;;;;;;7.00;3.05;;;;;;;;;;4967886;28;20046;-89
2024/02/13 06:31:12;;;;;;;4.65;2.28;;;;;;;;;;4968364;28;20411;-85
2024/02/13 06:34:00;;;;;;;10.45;3.20;;;;;;;;;;4968134;28;20107;-92
2024/02/13 06:36:45;;;;;;;6.22;2.50;;;;;;;;;;4966075;28;20029;-89
2024/02/13 06:39:31;;;;;;;4.68;2.20;;;;;;;;;;4968859;28;20018;-85
2024/02/13 06:42:17;;;;;;;7.45;2.10;;;;;;;;;;4970227;28;20034;-87
2024/02/13 06:45:27;;;;;;;7.25;2.08;;;;;;;;;;4945085;28;20030;-87
2024/02/13 06:48:12;;;;;;;2.95;1.75;;;;;;;;;;4937720;28;20043;-85
2024/02/13 06:50:57;;;;;;;3.83;2.28;;;;;;;;;;4952700;28;20081;-88
2024/02/13 06:53:43;;;;;;;3.58;1.90;;;;;;;;;;4951426;28;20110;-88
2024/02/13 06:56:28;;;;;;;6.88;2.13;;;;;;;;;;4952733;28;20031;-87
2024/02/13 06:59:13;;;;;;;5.63;2.25;;;;;;;;;;4955123;28;20094;-88
2024/02/13 07:02:01;;;;;;;7.22;2.33;;;;;;;;;;4937359;28;20065;-86
2024/02/13 07:04:46;;;;;;;5.90;2.72;;;;;;;;;;4955326;28;20038;-83
2024/02/13 07:07:32;;;;;;;6.00;1.85;;;;;;;;;;4952608;28;20019;-85
2024/02/13 07:10:17;;;;;;;8.90;2.15;;;;;;;;;;4955498;28;20046;-84
2024/02/13 07:13:02;;;;;;;11.15;2.53;;;;;;;;;;4955005;28;20054;-84
2024/02/13 07:15:48;;;;;;;8.45;4.18;;;;;;;;;;4959058;28;20486;-86
2024/02/13 07:18:34;;;;;;;6.85;2.25;;;;;;;;;;4950326;28;20043;-90
2024/02/13 07:21:20;;;;;;;10.15;2.78;;;;;;;;;;4962105;28;20081;-91
2024/02/13 07:24:05;;;;;;;7.20;2.78;;;;;;;;;;4965015;28;20034;-92
2024/02/13 07:26:53;;;;;;;6.97;2.53;;;;;;;;;;4967523;28;20039;-92
2024/02/13 07:29:42;;;;;;;7.95;2.20;;;;;;;;;;4968859;28;20033;-89
2024/02/13 07:32:27;;;;;;;7.95;2.60;;;;;;;;;;4955152;28;20023;-85
2024/02/13 07:35:13;;;;;;;6.45;2.75;;;;;;;;;;4962379;28;20114;-90
2024/02/13 07:37:58;;;;;;;8.45;2.42;;;;;;;;;;4962656;28;20027;-88
2024/02/13 07:40:44;;;;;;;7.60;2.55;;;;;;;;;;4975171;28;20057;-90
2024/02/13 07:43:30;;;;;;;4.30;2.08;;;;;;;;;;4970455;28;20027;-86
2024/02/13 07:46:15;;;;;;;10.13;2.50;;;;;;;;;;4959953;28;20161;-88
2024/02/13 07:49:00;;;;;;;7.78;1.98;;;;;;;;;;4956969;28;20039;-85
2024/02/13 07:51:46;;;;;;;8.90;2.17;;;;;;;;;;4964076;28;20027;-90
2024/02/13 07:54:31;;;;;;;4.75;2.15;;;;;;;;;;4970903;28;20070;-87
2024/02/13 07:57:17;;;;;;;7.00;2.03;;;;;;;;;;4963373;28;20042;-87
2024/02/13 08:00:06;;;;;;;10.70;2.33;;;;;;;;;;4966871;28;20474;-87
2024/02/13 08:02:53;;;;;;;8.73;2.70;;;;;;;;;;4978478;28;20039;-87
2024/02/13 08:05:39;;;;;;;7.57;2.13;;;;;;;;;;4951131;28;20470;-88
2024/02/13 08:08:27;;;;;;;7.32;2.25;;;;;;;;;;4975166;28;20027;-90
2024/02/13 08:13:40;;;;;;;5.32;2.03;;;;;;;;;;5293964;23;20099;-82
2024/02/13 08:16:29;;;;;;;5.95;1.70;;;;;;;;;;4943805;28;20023;-88
2024/02/13 08:19:14;;;;;;;5.40;2.50;;;;;;;;;;4946400;28;20074;-89
2024/02/13 08:22:00;;;;;;;7.13;2.85;;;;;;;;;;4928874;29;20126;-89
2024/02/13 08:24:45;;;;;;;7.68;2.53;;;;;;;;;;4944908;29;20019;-90
2024/02/13 08:27:30;;;;;;;7.32;2.08;;;;;;;;;;4936158;28;20058;-88
2024/02/13 08:30:16;;;;;;;8.93;2.40;;;;;;;;;;4946450;28;20031;-87
2024/02/13 08:33:04;;;;;;;7.20;2.17;;;;;;;;;;4934638;29;20117;-89
2024/02/13 08:35:52;;;;;;;5.65;2.40;;;;;;;;;;4952098;28;20022;-91
2024/02/13 08:38:42;;;;;;;7.95;3.60;;;;;;;;;;4936678;28;20027;-91
2024/02/13 08:41:27;;;;;;;;;;;;;;;;;;4938262;29;20027;-88
2024/02/13 08:44:16;;;;;;;6.32;2.72;;;;;;;;;;4924333;29;19911;-91
2024/02/13 08:47:02;;;;;;;11.95;3.75;;;;;;;;;;4941616;28;20015;-87
2024/02/13 08:49:48;;;;;;;11.98;2.45;;;;;;;;;;4937394;28;20027;-89
2024/02/13 08:52:33;;;;;;;7.65;2.80;;;;;;;;;;4929033;28;20059;-90
2024/02/13 08:55:18;;;;;;;6.72;2.10;;;;;;;;;;4938163;28;20452;-90
2024/02/13 08:58:04;;;;;;;5.32;1.83;;;;;;;;;;4937975;28;20019;-89
2024/02/13 09:00:49;;;;;;;6.72;1.85;;;;;;;;;;4938835;29;20079;-90
2024/02/13 09:03:35;;;;;;;12.57;2.60;;;;;;;;;;4920488;28;20031;-88
2024/02/13 09:06:20;;;;;;;5.70;2.30;;;;;;;;;;4936496;29;20135;-86
2024/02/13 09:09:08;;;;;;;10.55;2.38;;;;;;;;;;4935755;28;20035;-83
2024/02/13 09:11:54;;;;;;;10.88;2.42;;;;;;;;;;4932140;28;20030;-85
2024/02/13 09:14:40;;;;;;;8.18;2.35;;;;;;;;;;4939194;29;20085;-90
2024/02/13 09:17:29;;;;;;;4.22;1.50;;;;;;;;;;4949428;28;20073;-89
2024/02/13 09:20:14;;;;;;;5.50;1.55;;;;;;;;;;4922878;29;20031;-88
2024/02/13 09:22:59;;;;;;;3.78;1.48;;;;;;;;;;4936970;28;20031;-89
2024/02/13 09:25:49;;;;;;;9.52;2.20;;;;;;;;;;4935792;29;20058;-87
2024/02/13 09:28:34;;;;;;;7.20;2.25;;;;;;;;;;4928345;29;20055;-89
2024/02/13 09:31:20;;;;;;;7.68;1.48;;;;;;;;;;4935892;29;20386;-89
2024/02/13 09:34:06;;;;;;;6.60;1.50;;;;;;;;;;4930626;29;20559;-91
2024/02/13 09:36:51;;;;;;;6.25;1.70;;;;;;;;;;4938875;29;20520;-90
2024/02/13 09:39:40;;;;;;;5.53;1.92;;;;;;;;;;4921792;28;20038;-92
2024/02/13 09:42:25;;;;;;;4.90;1.75;;;;;;;;;;4939042;29;20114;-87
2024/02/13 09:45:13;;;;;;;6.80;2.17;;;;;;;;;;4936706;29;20027;-89
2024/02/13 09:48:06;;;;;;;6.65;1.98;;;;;;;;;;4938590;29;20038;-90
2024/02/13 09:50:52;;;;;;;8.35;2.45;;;;;;;;;;4934748;29;20455;-87
2024/02/13 09:53:42;;;;;;;3.20;1.38;;;;;;;;;;4932792;29;20035;-88
2024/02/13 09:56:27;;;;;;;11.18;2.45;;;;;;;;;;4928759;29;20019;-88
2024/02/13 09:59:13;;;;;;;8.02;2.45;;;;;;;;;;4939855;29;20027;-90
2024/02/13 10:01:59;;;;;;;4.57;1.70;;;;;;;;;;4940854;29;20098;-89
2024/02/13 10:04:48;;;;;;;4.28;1.92;;;;;;;;;;4936601;29;20063;-89
2024/02/13 10:07:34;;;;;;;5.57;1.70;;;;;;;;;;4937007;28;20134;-89
2024/02/13 10:50:10;;;;;;;4.25;1.40;;;;;;;;;;4714161;26;20154;-88
2024/02/13 10:53:18;;;;;;;4.45;1.23;;;;;;;;;;4907574;29;20044;-87
2024/02/13 11:03:42;;;;;;;3.90;1.50;;;;;;;;;;4814602;29;20074;-88
2024/02/13 11:06:27;;;;;;;5.20;1.85;;;;;;;;;;4887190;29;20032;-80
2024/02/13 11:09:13;;;;;;;5.38;2.25;;;;;;;;;;4892142;29;20048;-82
2024/02/13 11:11:58;;;;;;;6.50;1.80;;;;;;;;;;4911040;29;20483;-83
2024/02/13 11:14:43;;;;;;;4.53;1.20;;;;;;;;;;4900343;29;20040;-90
2024/02/13 11:17:31;;;;;;;3.47;1.13;;;;;;;;;;4898530;29;20028;-89
2024/02/13 11:20:19;;;;;;;3.42;1.20;;;;;;;;;;4897009;29;20043;-90
2024/02/13 11:23:11;;;;;;;8.43;1.90;;;;;;;;;;4897158;29;20024;-85
2024/02/13 11:26:01;;;;;;;8.85;1.77;;;;;;;;;;4899396;29;20032;-87
2024/02/13 11:28:48;;;;;;;7.00;1.50;;;;;;;;;;4896367;29;20042;-88
2024/02/13 11:31:33;;;;;;;2.08;1.10;;;;;;;;;;4897913;29;20087;-87
2024/02/13 11:34:39;;;;;;;7.30;1.40;;;;;;;;;;4906794;29;20114;-88
2024/02/13 11:37:28;;;;;;;5.22;1.73;;;;;;;;;;4898599;29;20143;-88
2024/02/13 11:40:18;;;;;;;3.08;1.20;;;;;;;;;;4898177;29;20028;-89
2024/02/13 11:43:04;;;;;;;6.40;1.45;;;;;;;;;;4892562;29;20170;-87
2024/02/13 11:45:50;;;;;;;3.75;1.30;;;;;;;;;;4897652;29;20294;-88
2024/02/13 11:48:38;;;;;;;2.63;1.00;;;;;;;;;;4896505;29;20060;-89
2024/02/13 11:51:23;;;;;;;1.45;1.02;;;;;;;;;;4881736;29;20025;-88
2024/02/13 11:54:09;;;;;;;1.17;0.90;;;;;;;;;;4878918;29;20084;-87
2024/02/13 11:56:54;;;;;;;3.65;1.20;;;;;;;;;;4880473;29;20054;-88
2024/02/13 11:59:41;;;;;;;2.40;0.90;;;;;;;;;;4881481;29;20081;-88
2024/02/13 12:02:28;;;;;;;2.13;1.23;;;;;;;;;;4880599;29;20056;-87
2024/02/13 12:05:15;;;;;;;4.97;1.13;;;;;;;;;;4880982;29;20028;-91
2024/02/13 12:08:02;;;;;;;2.67;1.45;;;;;;;;;;4880050;29;20115;-88
2024/02/13 12:10:48;;;;;;;4.03;1.40;;;;;;;;;;4862842;29;20092;-87
2024/02/13 12:13:48;;;;;;;2.10;0.80;;;;;;;;;;4872473;29;20425;-91
2024/02/13 12:16:35;;;;;;;3.83;1.70;;;;;;;;;;4866215;29;20565;-90
2024/02/13 12:19:20;;;;;;;2.38;1.10;;;;;;;;;;4877856;29;20054;-88
2024/02/13 12:22:17;;;;;;;4.72;1.30;;;;;;;;;;4880532;29;20036;-88
2024/02/13 12:25:06;;;;;;;2.17;1.05;;;;;;;;;;4874415;29;20036;-89
2024/02/13 12:27:52;;;;;;;3.63;1.33;;;;;;;;;;4879267;29;20035;-87
2024/02/13 12:30:37;;;;;;;3.83;1.15;;;;;;;;;;4877524;29;20033;-86
2024/02/13 12:33:25;;;;;;;3.28;0.88;;;;;;;;;;4879300;29;20080;-88
2024/02/13 12:36:18;;;;;;;2.90;1.30;;;;;;;;;;4883134;29;20029;-90
2024/02/13 12:39:08;;;;;;;5.00;1.38;;;;;;;;;;4882051;29;20028;-87
2024/02/13 12:41:57;;;;;;;2.50;1.20;;;;;;;;;;4882905;29;20036;-88
2024/02/13 12:44:47;;;;;;;5.33;2.10;;;;;;;;;;4873139;29;20028;-92
2024/02/13 12:47:32;;;;;;;1.50;1.00;;;;;;;;;;4897492;29;20034;-89
2024/02/13 12:50:17;;;;;;;1.30;0.80;;;;;;;;;;4906989;29;20032;-89
2024/02/13 12:53:09;;;;;;;3.63;1.42;;;;;;;;;;4903842;29;20032;-89
2024/02/13 12:56:15;;;;;;;2.63;1.30;;;;;;;;;;4918544;29;20043;-92
2024/02/13 12:59:08;;;;;;;5.53;1.55;;;;;;;;;;4925639;29;20068;-91
2024/02/13 13:02:01;;;;;;;3.40;1.05;;;;;;;;;;4900166;29;20032;-91
2024/02/13 13:04:52;;;;;;;8.77;1.52;;;;;;;;;;4898675;29;20035;-91
2024/02/13 13:07:42;;;;;;;1.88;1.13;;;;;;;;;;4919194;29;20108;-93
2024/02/13 13:10:30;;;;;;;4.43;1.23;;;;;;;;;;4896069;29;20008;-91
2024/02/13 13:13:17;;;;;;;4.72;1.13;;;;;;;;;;4927010;29;20066;-88
2024/02/13 13:16:02;;;;;;;1.85;1.13;;;;;;;;;;4958272;28;20022;-89
2024/02/13 13:18:48;;;;;;;4.13;1.20;;;;;;;;;;4944330;29;20066;-88
2024/02/13 13:21:33;;;;;;;2.38;1.05;;;;;;;;;;4949787;29;20027;-88
2024/02/13 13:24:42;;;;;;;3.05;1.13;;;;;;;;;;4957461;28;20063;-91
2024/02/13 13:27:45;;;;;;;3.55;1.45;;;;;;;;;;4930844;29;20076;-88
2024/02/13 13:30:40;;;;;;;1.20;0.98;;;;;;;;;;4876635;29;20426;-86
2024/02/13 13:34:09;;;;;;;;;;;;;;;;;;;;;
2024/02/13 13:37:04;;;;;;;3.80;1.45;;;;;;;;;;4923214;29;20087;-89
2024/02/13 13:39:53;;;;;;;2.38;1.08;;;;;;;;;;4884923;29;20584;-90
2024/02/13 13:56:51;;;;;;;2.83;1.40;;;;;;;;;;4804052;29;20034;-89
2024/02/13 13:59:35;;;;;;;4.22;1.20;;;;;;;;;;4808339;29;20555;-88
2024/02/13 14:02:25;;;;;;;4.90;1.10;;;;;;;;;;4803718;29;20066;-88
2024/02/13 14:46:07;;;;;;;2.40;0.90;;;;;;;;;;4929594;28;20410;-85
2024/02/13 14:49:05;;;;;;;;;;;;;;;;;;;;;
2024/02/13 14:51:51;;;;;;;1.40;0.88;;;;;;;;;;4948219;28;20047;-86
2024/02/13 14:54:41;;;;;;;2.75;1.33;;;;;;;;;;4947914;28;20031;-88
2024/02/13 15:11:15;;;;;;;1.85;1.00;;;;;;;;;;4900774;29;20028;-87
2024/02/13 15:14:13;;;;;;;3.03;1.25;;;;;;;;;;4909279;29;20024;-92
2024/02/13 15:20:35;;;;;;;3.25;1.00;;;;;;;;;;4853330;29;20036;-88
2024/02/13 15:23:24;;;;;;;2.33;1.30;;;;;;;;;;4883440;28;20038;-85
2024/02/13 15:26:11;;;;;;;1.63;1.20;;;;;;;;;;4944066;28;20023;-88
2024/02/13 15:29:14;;;;;;;4.03;1.10;;;;;;;;;;4947509;28;20110;-91
2024/02/13 15:36:20;;;;;;;;;;;;;;;;;;;;;
2024/02/13 15:48:39;;;;;;;1.43;1.03;;;;;;;;;;4957768;28;20412;-91
2024/02/13 15:51:39;;;;;;;1.67;1.00;;;;;;;;;;4928056;28;20039;-90
2024/02/13 15:54:25;;;;;;;2.90;1.15;;;;;;;;;;4932856;28;20378;-89
2024/02/13 15:57:18;;;;;;;1.77;1.23;;;;;;;;;;4936424;28;20221;-87
2024/02/13 16:08:04;;;;;;;2.47;1.00;;;;;;;;;;4826745;29;20037;-90
2024/02/13 16:13:17;;;;;;;9.07;1.77;;;;;;;;;;5030704;23;20087;-86
2024/02/13 16:16:06;;;;;;;2.80;1.40;;;;;;;;;;4932958;28;20042;-90
2024/02/13 16:18:52;;;;;;;4.53;1.17;;;;;;;;;;4916789;28;20098;-86
2024/02/13 16:21:37;;;;;;;4.63;2.08;;;;;;;;;;4938381;29;20082;-86
2024/02/13 16:24:22;;;;;;;6.68;2.13;;;;;;;;;;4936881;29;20028;-86
2024/02/13 16:27:08;;;;;;;2.15;1.23;;;;;;;;;;4937643;28;20038;-87
2024/02/13 16:29:53;;;;;;;4.00;1.10;;;;;;;;;;4934842;28;20031;-86
2024/02/13 16:32:39;;;;;;;4.43;1.17;;;;;;;;;;4938176;29;20038;-86
2024/02/13 16:35:25;;;;;;;4.35;1.70;;;;;;;;;;4934325;28;20074;-87
2024/02/13 16:38:10;;;;;;;4.32;2.25;;;;;;;;;;4938271;29;20023;-86
2024/02/13 16:40:56;;;;;;;5.38;2.33;;;;;;;;;;4937954;29;20035;-88
2024/02/13 16:43:44;;;;;;;4.28;1.73;;;;;;;;;;4936945;28;20026;-87
2024/02/13 16:46:35;;;;;;;3.03;1.48;;;;;;;;;;4930217;29;20086;-86
2024/02/13 16:49:24;;;;;;;7.30;2.15;;;;;;;;;;4937330;29;20062;-86
2024/02/13 16:52:09;;;;;;;6.63;2.35;;;;;;;;;;4938510;29;20371;-87
2024/02/13 16:54:54;;;;;;;3.70;1.45;;;;;;;;;;4932867;28;20023;-86
2024/02/13 16:57:41;;;;;;;3.28;1.67;;;;;;;;;;4936321;29;20023;-86
2024/02/13 17:00:26;;;;;;;4.07;1.40;;;;;;;;;;4935042;29;20491;-84
2024/02/13 17:03:13;;;;;;;3.92;1.67;;;;;;;;;;4933001;28;20016;-86
2024/02/13 17:06:03;;;;;;;6.53;1.70;;;;;;;;;;4937430;28;20019;-87
2024/02/13 17:08:48;;;;;;;7.13;2.08;;;;;;;;;;4931114;29;20027;-87
2024/02/13 17:11:34;;;;;;;4.03;1.90;;;;;;;;;;4942865;28;20023;-87
2024/02/13 17:14:19;;;;;;;6.35;1.50;;;;;;;;;;4936862;29;20019;-86
2024/02/13 17:17:08;;;;;;;6.18;1.98;;;;;;;;;;4936773;29;20019;-86
2024/02/13 17:19:53;;;;;;;7.75;2.88;;;;;;;;;;4932044;29;20073;-85
2024/02/13 17:22:39;;;;;;;5.18;1.85;;;;;;;;;;4934780;29;20122;-85
2024/02/13 17:25:25;;;;;;;2.55;1.50;;;;;;;;;;4936859;29;20026;-87
2024/02/13 17:28:10;;;;;;;4.43;1.80;;;;;;;;;;4936615;28;20030;-86
2024/02/13 17:30:58;;;;;;;4.15;2.20;;;;;;;;;;4934308;28;20034;-87
2024/02/13 17:33:44;;;;;;;7.22;2.95;;;;;;;;;;4934140;28;20387;-86
2024/02/13 17:36:29;;;;;;;8.95;3.35;;;;;;;;;;4937778;29;20023;-87
2024/02/13 17:39:14;;;;;;;7.53;3.65;;;;;;;;;;4937262;29;20034;-85
2024/02/13 17:42:00;;;;;;;6.90;3.10;;;;;;;;;;4920160;29;20372;-86
2024/02/13 17:44:48;;;;;;;8.20;3.17;;;;;;;;;;4935794;29;20034;-86
2024/02/13 17:47:36;;;;;;;6.40;2.45;;;;;;;;;;4926300;29;20067;-88
2024/02/13 17:50:23;;;;;;;9.43;3.35;;;;;;;;;;4933837;29;20058;-87
2024/02/13 17:53:09;;;;;;;8.40;2.85;;;;;;;;;;4927852;29;20023;-87
2024/02/13 17:55:57;;;;;;;7.30;2.47;;;;;;;;;;4933370;29;20054;-88
2024/02/13 17:58:42;;;;;;;6.28;2.72;;;;;;;;;;4934066;28;20064;-88
2024/02/13 18:01:28;;;;;;;4.90;1.90;;;;;;;;;;4935633;29;20110;-87
2024/02/13 18:04:13;;;;;;;7.35;3.15;;;;;;;;;;4934201;28;20227;-86
2024/02/13 18:07:17;;;;;;;8.45;3.25;;;;;;;;;;4934454;29;20071;-87
2024/02/13 18:10:03;;;;;;;4.70;2.22;;;;;;;;;;4935607;29;20023;-87
2024/02/13 18:12:49;;;;;;;5.15;2.47;;;;;;;;;;4936619;29;20051;-87
2024/02/13 18:15:34;;;;;;;8.48;3.40;;;;;;;;;;4934505;28;20049;-85
2024/02/13 18:18:19;;;;;;;10.05;3.72;;;;;;;;;;4933235;28;20597;-84
2024/02/13 18:21:05;;;;;;;19.05;6.95;;;;;;;;;;4932190;29;20045;-81
2024/02/13 18:23:55;;;;;;;11.57;6.93;;;;;;;;;;4927297;29;20557;-82
2024/02/13 18:26:40;;;;;;;5.73;3.37;;;;;;;;;;4936777;28;20094;-82
2024/02/13 18:29:27;;;;;;;5.95;2.72;;;;;;;;;;4934150;28;20034;-81
2024/02/13 18:32:15;;;;;;;6.55;2.92;;;;;;;;;;4927048;28;20439;-87
2024/02/13 18:35:00;;;;;;;6.35;3.30;;;;;;;;;;4932388;29;20046;-87
2024/02/13 18:37:46;;;;;;;9.65;3.70;;;;;;;;;;4938792;29;20027;-86
2024/02/13 18:40:31;;;;;;;5.97;3.33;;;;;;;;;;4934178;29;20027;-88
2024/02/13 18:43:17;;;;;;;5.95;2.92;;;;;;;;;;4934337;28;20034;-92
2024/02/13 18:46:02;;;;;;;9.25;3.42;;;;;;;;;;4925295;29;20034;-90
2024/02/13 18:48:56;;;;;;;7.13;2.53;;;;;;;;;;4936939;29;20026;-91
2024/02/13 18:51:41;;;;;;;8.02;3.03;;;;;;;;;;4921467;29;20035;-91
2024/02/13 18:54:27;;;;;;;7.28;3.33;;;;;;;;;;4922628;29;20837;-92
2024/02/13 18:57:13;;;;;;;8.20;2.95;;;;;;;;;;4937292;29;20045;-90
2024/02/13 18:59:58;;;;;;;9.55;3.70;;;;;;;;;;4931732;28;20034;-91
2024/02/13 19:02:43;;;;;;;7.30;3.30;;;;;;;;;;4930620;29;20039;-90
2024/02/13 19:05:29;;;;;;;10.35;3.60;;;;;;;;;;4931821;29;20055;-90
2024/02/13 19:08:20;;;;;;;7.80;3.22;;;;;;;;;;4928030;29;20037;-90
2024/02/13 19:36:09;;;;;;;9.93;4.45;;;;;;;;;;4187070;23;20043;-91
2024/02/13 19:56:46;;;;;;;8.90;3.80;;;;;;;;;;4722885;30;20037;-91
2024/02/13 19:59:56;;;;;;;7.38;3.97;;;;;;;;;;4738309;30;20052;-91
2024/02/13 20:50:19;;;;;;;12.73;4.13;;;;;;;;;;4914010;29;20492;-88
2024/02/13 20:56:29;;;;;;;10.50;4.18;;;;;;;;;;4890813;29;20036;-88
2024/02/13 20:59:17;;;;;;;6.38;3.95;;;;;;;;;;4895900;29;20027;-87
2024/02/13 21:02:02;;;;;;;7.05;3.78;;;;;;;;;;4906555;29;20035;-87
2024/02/13 21:04:48;;;;;;;12.63;3.80;;;;;;;;;;4887171;29;20027;-89
2024/02/13 21:07:32;;;;;;;8.75;4.30;;;;;;;;;;4932186;29;20133;-87